sensor_id;sensor_type;location;lat;lon;timestamp;temperature;humidity
1948;DHT22;974;52.400;9.818;2024-01-15T00:00:44;1.20;99.90
1948;DHT22;974;52.400;9.818;2024-01-15T00:03:10;1.20;99.90
1948;DHT22;974;52.400;9.818;2024-01-15T00:05:36;1.20;99.90
1948;DHT22;974;52.400;9.818;2024-01-15T00:08:01;1.20;99.90
1948;DHT22;974;52.400;9.818;2024-01-15T00:10:27;1.20;99.90
1948;DHT22;974;52.400;9.818;2024-01-15T00:12:52;1.20;99.90
1948;DHT22;974;52.400;9.818;2024-01-15T00:15:18;1.30;99.90
1948;DHT22;974;52.400;9.818;2024-01-15T00:17:43;1.30;99.90
1948;DHT22;974;52.400;9.818;2024-01-15T00:20:09;1.30;99.90
1948;DHT22;974;52.400;9.818;2024-01-15T00:22:34;1.20;99.90
1948;DHT22;974;52.400;9.818;2024-01-15T00:25:03;1.20;99.90
1948;DHT22;974;52.400;9.818;2024-01-15T00:27:29;1.20;99.90
1948;DHT22;974;52.400;9.818;2024-01-15T00:29:57;1.30;99.90
1948;DHT22;974;52.400;9.818;2024-01-15T00:32:23;1.20;99.90
1948;DHT22;974;52.400;9.818;2024-01-15T00:34:48;1.20;99.90
1948;DHT22;974;52.400;9.818;2024-01-15T00:37:14;1.30;99.90
1948;DHT22;974;52.400;9.818;2024-01-15T00:39:39;1.20;99.90
1948;DHT22;974;52.400;9.818;2024-01-15T00:42:05;1.20;99.90
1948;DHT22;974;52.400;9.818;2024-01-15T00:44:30;1.20;99.90
1948;DHT22;974;52.400;9.818;2024-01-15T00:46:56;1.20;99.90
1948;DHT22;974;52.400;9.818;2024-01-15T00:49:21;1.20;99.90
1948;DHT22;974;52.400;9.818;2024-01-15T00:51:47;1.10;99.90
1948;DHT22;974;52.400;9.818;2024-01-15T00:54:12;1.20;99.90
1948;DHT22;974;52.400;9.818;2024-01-15T00:56:38;1.10;99.90
1948;DHT22;974;52.400;9.818;2024-01-15T00:59:03;1.10;99.90
1948;DHT22;974;52.400;9.818;2024-01-15T01:01:29;1.20;99.90
1948;DHT22;974;52.400;9.818;2024-01-15T01:03:55;1.10;99.90
1948;DHT22;974;52.400;9.818;2024-01-15T01:06:20;1.10;99.90
1948;DHT22;974;52.400;9.818;2024-01-15T01:08:46;1.10;99.90
1948;DHT22;974;52.400;9.818;2024-01-15T01:11:15;1.10;99.90
1948;DHT22;974;52.400;9.818;2024-01-15T01:13:40;1.20;99.90
1948;DHT22;974;52.400;9.818;2024-01-15T01:16:06;1.20;99.90
1948;DHT22;974;52.400;9.818;2024-01-15T01:18:31;1.20;99.90
1948;DHT22;974;52.400;9.818;2024-01-15T01:20:57;1.20;99.90
1948;DHT22;974;52.400;9.818;2024-01-15T01:23:22;1.20;99.90
1948;DHT22;974;52.400;9.818;2024-01-15T01:25:48;1.30;99.90
1948;DHT22;974;52.400;9.818;2024-01-15T01:28:13;1.20;99.90
1948;DHT22;974;52.400;9.818;2024-01-15T01:30:39;1.20;99.90
1948;DHT22;974;52.400;9.818;2024-01-15T01:33:04;1.10;99.90
1948;DHT22;974;52.400;9.818;2024-01-15T01:35:30;1.20;99.90
1948;DHT22;974;52.400;9.818;2024-01-15T01:37:55;1.20;99.90
1948;DHT22;974;52.400;9.818;2024-01-15T01:40:21;1.20;99.90
1948;DHT22;974;52.400;9.818;2024-01-15T01:42:48;1.20;99.90
1948;DHT22;974;52.400;9.818;2024-01-15T01:45:14;1.20;99.90
1948;DHT22;974;52.400;9.818;2024-01-15T01:47:40;1.20;99.90
1948;DHT22;974;52.400;9.818;2024-01-15T01:50:06;1.20;99.90
1948;DHT22;974;52.400;9.818;2024-01-15T01:52:32;1.20;99.90
1948;DHT22;974;52.400;9.818;2024-01-15T01:54:59;1.30;99.90
1948;DHT22;974;52.400;9.818;2024-01-15T01:57:25;1.40;99.90
1948;DHT22;974;52.400;9.818;2024-01-15T01:59:51;1.40;99.90
1948;DHT22;974;52.400;9.818;2024-01-15T02:02:16;1.40;99.90
1948;DHT22;974;52.400;9.818;2024-01-15T02:04:42;1.40;99.90
1948;DHT22;974;52.400;9.818;2024-01-15T02:07:07;1.40;99.90
1948;DHT22;974;52.400;9.818;2024-01-15T02:09:35;1.50;99.90
1948;DHT22;974;52.400;9.818;2024-01-15T02:12:00;1.40;99.90
1948;DHT22;974;52.400;9.818;2024-01-15T02:14:26;1.50;99.90
1948;DHT22;974;52.400;9.818;2024-01-15T02:16:51;1.50;99.90
1948;DHT22;974;52.400;9.818;2024-01-15T02:19:17;1.50;99.90
1948;DHT22;974;52.400;9.818;2024-01-15T02:21:43;1.50;99.90
1948;DHT22;974;52.400;9.818;2024-01-15T02:24:09;1.60;99.90
1948;DHT22;974;52.400;9.818;2024-01-15T02:26:34;1.50;99.90
1948;DHT22;974;52.400;9.818;2024-01-15T02:29:02;1.60;99.90
1948;DHT22;974;52.400;9.818;2024-01-15T02:31:28;1.60;99.90
1948;DHT22;974;52.400;9.818;2024-01-15T02:33:53;1.60;99.90
1948;DHT22;974;52.400;9.818;2024-01-15T02:36:19;1.60;99.90
1948;DHT22;974;52.400;9.818;2024-01-15T02:38:44;1.60;99.90
1948;DHT22;974;52.400;9.818;2024-01-15T02:41:10;1.60;99.90
1948;DHT22;974;52.400;9.818;2024-01-15T02:43:35;1.60;99.90
1948;DHT22;974;52.400;9.818;2024-01-15T02:46:01;1.60;99.90
1948;DHT22;974;52.400;9.818;2024-01-15T02:48:26;1.60;99.90
1948;DHT22;974;52.400;9.818;2024-01-15T02:50:52;1.70;99.90
1948;DHT22;974;52.400;9.818;2024-01-15T02:53:17;1.60;99.90
1948;DHT22;974;52.400;9.818;2024-01-15T02:55:43;1.60;99.90
1948;DHT22;974;52.400;9.818;2024-01-15T02:58:08;1.60;99.90
1948;DHT22;974;52.400;9.818;2024-01-15T03:00:35;1.60;99.90
1948;DHT22;974;52.400;9.818;2024-01-15T03:03:00;1.60;99.90
1948;DHT22;974;52.400;9.818;2024-01-15T03:05:26;1.70;99.90
1948;DHT22;974;52.400;9.818;2024-01-15T03:07:51;1.70;99.90
1948;DHT22;974;52.400;9.818;2024-01-15T03:10:17;1.70;99.90
1948;DHT22;974;52.400;9.818;2024-01-15T03:12:42;1.70;99.90
1948;DHT22;974;52.400;9.818;2024-01-15T03:15:08;1.60;99.90
1948;DHT22;974;52.400;9.818;2024-01-15T03:17:33;1.60;99.90
1948;DHT22;974;52.400;9.818;2024-01-15T03:19:59;1.60;99.90
1948;DHT22;974;52.400;9.818;2024-01-15T03:22:24;1.60;99.90
1948;DHT22;974;52.400;9.818;2024-01-15T03:24:50;1.60;99.90
1948;DHT22;974;52.400;9.818;2024-01-15T03:27:15;1.70;99.90
1948;DHT22;974;52.400;9.818;2024-01-15T03:29:41;1.70;99.90
1948;DHT22;974;52.400;9.818;2024-01-15T03:32:06;1.60;99.90
1948;DHT22;974;52.400;9.818;2024-01-15T03:34:32;1.60;99.90
1948;DHT22;974;52.400;9.818;2024-01-15T03:36:58;1.60;99.90
1948;DHT22;974;52.400;9.818;2024-01-15T03:39:24;1.60;99.90
1948;DHT22;974;52.400;9.818;2024-01-15T03:41:50;1.70;99.90
1948;DHT22;974;52.400;9.818;2024-01-15T03:44:15;1.60;99.90
1948;DHT22;974;52.400;9.818;2024-01-15T03:46:41;1.50;99.90
1948;DHT22;974;52.400;9.818;2024-01-15T03:49:06;1.50;99.90
1948;DHT22;974;52.400;9.818;2024-01-15T03:51:32;1.50;99.90
1948;DHT22;974;52.400;9.818;2024-01-15T03:53:57;1.60;99.90
1948;DHT22;974;52.400;9.818;2024-01-15T03:56:23;1.60;99.90
1948;DHT22;974;52.400;9.818;2024-01-15T03:58:48;1.60;99.90
1948;DHT22;974;52.400;9.818;2024-01-15T04:01:14;1.70;99.90
1948;DHT22;974;52.400;9.818;2024-01-15T04:03:39;1.70;99.90
1948;DHT22;974;52.400;9.818;2024-01-15T04:06:05;1.70;99.90
1948;DHT22;974;52.400;9.818;2024-01-15T04:08:30;1.70;99.90
1948;DHT22;974;52.400;9.818;2024-01-15T04:10:56;1.80;99.90
1948;DHT22;974;52.400;9.818;2024-01-15T04:13:21;1.70;99.90
1948;DHT22;974;52.400;9.818;2024-01-15T04:15:47;1.80;99.90
1948;DHT22;974;52.400;9.818;2024-01-15T04:18:12;1.90;99.90
1948;DHT22;974;52.400;9.818;2024-01-15T04:20:38;1.90;99.90
1948;DHT22;974;52.400;9.818;2024-01-15T04:23:04;1.90;99.90
1948;DHT22;974;52.400;9.818;2024-01-15T04:25:29;1.80;99.90
1948;DHT22;974;52.400;9.818;2024-01-15T04:27:55;1.80;99.90
1948;DHT22;974;52.400;9.818;2024-01-15T04:30:20;1.80;99.90
1948;DHT22;974;52.400;9.818;2024-01-15T04:32:46;1.80;99.90
1948;DHT22;974;52.400;9.818;2024-01-15T04:35:12;1.70;99.90
1948;DHT22;974;52.400;9.818;2024-01-15T04:37:38;1.70;99.90
1948;DHT22;974;52.400;9.818;2024-01-15T04:40:03;1.60;99.90
1948;DHT22;974;52.400;9.818;2024-01-15T04:42:29;1.60;99.90
1948;DHT22;974;52.400;9.818;2024-01-15T04:44:55;1.50;99.90
1948;DHT22;974;52.400;9.818;2024-01-15T04:47:20;1.50;99.90
1948;DHT22;974;52.400;9.818;2024-01-15T04:49:46;1.40;99.90
1948;DHT22;974;52.400;9.818;2024-01-15T04:52:11;1.40;99.90
1948;DHT22;974;52.400;9.818;2024-01-15T04:54:38;1.40;99.90
1948;DHT22;974;52.400;9.818;2024-01-15T04:57:03;1.60;99.90
1948;DHT22;974;52.400;9.818;2024-01-15T04:59:29;1.60;99.90
1948;DHT22;974;52.400;9.818;2024-01-15T05:01:55;1.60;99.90
1948;DHT22;974;52.400;9.818;2024-01-15T05:04:20;1.60;99.90
1948;DHT22;974;52.400;9.818;2024-01-15T05:06:46;1.70;99.90
1948;DHT22;974;52.400;9.818;2024-01-15T05:09:12;1.60;99.90
1948;DHT22;974;52.400;9.818;2024-01-15T05:11:38;1.60;99.90
1948;DHT22;974;52.400;9.818;2024-01-15T05:14:04;1.60;99.90
1948;DHT22;974;52.400;9.818;2024-01-15T05:16:29;1.40;99.90
1948;DHT22;974;52.400;9.818;2024-01-15T05:18:55;1.40;99.90
1948;DHT22;974;52.400;9.818;2024-01-15T05:21:21;1.30;99.90
1948;DHT22;974;52.400;9.818;2024-01-15T05:23:46;1.40;99.90
1948;DHT22;974;52.400;9.818;2024-01-15T05:26:12;1.40;99.90
1948;DHT22;974;52.400;9.818;2024-01-15T05:28:37;1.40;99.90
1948;DHT22;974;52.400;9.818;2024-01-15T05:31:03;1.50;99.90
1948;DHT22;974;52.400;9.818;2024-01-15T05:33:29;1.50;99.90
1948;DHT22;974;52.400;9.818;2024-01-15T05:35:55;1.50;99.90
1948;DHT22;974;52.400;9.818;2024-01-15T05:38:20;1.50;99.90
1948;DHT22;974;52.400;9.818;2024-01-15T05:40:46;1.50;99.90
1948;DHT22;974;52.400;9.818;2024-01-15T05:43:11;1.50;99.90
1948;DHT22;974;52.400;9.818;2024-01-15T05:45:38;1.50;99.90
1948;DHT22;974;52.400;9.818;2024-01-15T05:48:04;1.50;99.90
1948;DHT22;974;52.400;9.818;2024-01-15T05:50:30;1.50;99.90
1948;DHT22;974;52.400;9.818;2024-01-15T05:52:56;1.40;99.90
1948;DHT22;974;52.400;9.818;2024-01-15T05:55:21;1.50;99.90
1948;DHT22;974;52.400;9.818;2024-01-15T05:57:46;1.50;99.90
1948;DHT22;974;52.400;9.818;2024-01-15T06:00:12;1.50;99.90
1948;DHT22;974;52.400;9.818;2024-01-15T06:02:38;1.60;99.90
1948;DHT22;974;52.400;9.818;2024-01-15T06:05:04;1.60;99.90
1948;DHT22;974;52.400;9.818;2024-01-15T06:07:30;1.60;99.90
1948;DHT22;974;52.400;9.818;2024-01-15T06:09:56;1.50;99.90
1948;DHT22;974;52.400;9.818;2024-01-15T06:12:24;1.50;99.90
1948;DHT22;974;52.400;9.818;2024-01-15T06:14:49;1.60;99.90
1948;DHT22;974;52.400;9.818;2024-01-15T06:17:15;1.60;99.90
1948;DHT22;974;52.400;9.818;2024-01-15T06:19:40;1.60;99.90
1948;DHT22;974;52.400;9.818;2024-01-15T06:22:06;1.50;99.90
1948;DHT22;974;52.400;9.818;2024-01-15T06:24:31;1.40;99.90
1948;DHT22;974;52.400;9.818;2024-01-15T06:26:57;1.40;99.90
1948;DHT22;974;52.400;9.818;2024-01-15T06:29:25;1.30;99.90
1948;DHT22;974;52.400;9.818;2024-01-15T06:31:51;1.30;99.90
1948;DHT22;974;52.400;9.818;2024-01-15T06:34:16;1.30;99.90
1948;DHT22;974;52.400;9.818;2024-01-15T06:36:42;1.40;99.90
1948;DHT22;974;52.400;9.818;2024-01-15T06:39:08;1.40;99.90
1948;DHT22;974;52.400;9.818;2024-01-15T06:41:33;1.30;99.90
1948;DHT22;974;52.400;9.818;2024-01-15T06:43:59;1.30;99.90
1948;DHT22;974;52.400;9.818;2024-01-15T06:46:27;1.40;99.90
1948;DHT22;974;52.400;9.818;2024-01-15T06:48:53;1.40;99.90
1948;DHT22;974;52.400;9.818;2024-01-15T06:51:18;1.40;99.90
1948;DHT22;974;52.400;9.818;2024-01-15T06:53:43;1.40;99.90
1948;DHT22;974;52.400;9.818;2024-01-15T06:56:09;1.50;99.90
1948;DHT22;974;52.400;9.818;2024-01-15T06:58:34;1.50;99.90
1948;DHT22;974;52.400;9.818;2024-01-15T07:01:00;1.50;99.90
1948;DHT22;974;52.400;9.818;2024-01-15T07:03:25;1.60;99.90
1948;DHT22;974;52.400;9.818;2024-01-15T07:05:51;1.60;99.90
1948;DHT22;974;52.400;9.818;2024-01-15T07:08:16;1.60;99.90
1948;DHT22;974;52.400;9.818;2024-01-15T07:10:42;1.60;99.90
1948;DHT22;974;52.400;9.818;2024-01-15T07:13:08;1.70;99.90
1948;DHT22;974;52.400;9.818;2024-01-15T07:15:33;1.60;99.90
1948;DHT22;974;52.400;9.818;2024-01-15T07:17:59;1.60;99.90
1948;DHT22;974;52.400;9.818;2024-01-15T07:20:25;1.60;99.90
1948;DHT22;974;52.400;9.818;2024-01-15T07:22:50;1.60;99.90
1948;DHT22;974;52.400;9.818;2024-01-15T07:25:16;1.70;99.90
1948;DHT22;974;52.400;9.818;2024-01-15T07:27:42;1.60;99.90
1948;DHT22;974;52.400;9.818;2024-01-15T07:30:11;1.60;99.90
1948;DHT22;974;52.400;9.818;2024-01-15T07:32:36;1.60;99.90
1948;DHT22;974;52.400;9.818;2024-01-15T07:35:02;1.60;99.90
1948;DHT22;974;52.400;9.818;2024-01-15T07:37:27;1.60;99.90
1948;DHT22;974;52.400;9.818;2024-01-15T07:39:53;1.50;99.90
1948;DHT22;974;52.400;9.818;2024-01-15T07:42:19;1.50;99.90
1948;DHT22;974;52.400;9.818;2024-01-15T07:44:44;1.50;99.90
1948;DHT22;974;52.400;9.818;2024-01-15T07:47:10;1.40;99.90
1948;DHT22;974;52.400;9.818;2024-01-15T07:49:35;1.40;99.90
1948;DHT22;974;52.400;9.818;2024-01-15T07:52:01;1.40;99.90
1948;DHT22;974;52.400;9.818;2024-01-15T07:54:26;1.40;99.90
1948;DHT22;974;52.400;9.818;2024-01-15T07:56:59;1.30;99.90
1948;DHT22;974;52.400;9.818;2024-01-15T07:59:26;1.40;99.90
1948;DHT22;974;52.400;9.818;2024-01-15T08:01:52;1.30;99.90
1948;DHT22;974;52.400;9.818;2024-01-15T08:04:19;1.30;99.90
1948;DHT22;974;52.400;9.818;2024-01-15T08:06:45;1.30;99.90
1948;DHT22;974;52.400;9.818;2024-01-15T08:09:11;1.30;99.90
1948;DHT22;974;52.400;9.818;2024-01-15T08:11:39;1.20;99.90
1948;DHT22;974;52.400;9.818;2024-01-15T08:14:05;1.10;99.90
1948;DHT22;974;52.400;9.818;2024-01-15T08:16:31;1.10;99.90
1948;DHT22;974;52.400;9.818;2024-01-15T08:18:56;1.10;99.90
1948;DHT22;974;52.400;9.818;2024-01-15T08:21:22;1.20;99.90
1948;DHT22;974;52.400;9.818;2024-01-15T08:23:47;1.10;99.90
1948;DHT22;974;52.400;9.818;2024-01-15T08:26:13;1.20;99.90
1948;DHT22;974;52.400;9.818;2024-01-15T08:28:38;1.10;99.90
1948;DHT22;974;52.400;9.818;2024-01-15T08:31:04;1.10;99.90
1948;DHT22;974;52.400;9.818;2024-01-15T08:33:29;1.00;99.90
1948;DHT22;974;52.400;9.818;2024-01-15T08:35:55;1.00;99.90
1948;DHT22;974;52.400;9.818;2024-01-15T08:38:20;1.00;99.90
1948;DHT22;974;52.400;9.818;2024-01-15T08:40:46;1.10;99.90
1948;DHT22;974;52.400;9.818;2024-01-15T08:43:11;1.10;99.90
1948;DHT22;974;52.400;9.818;2024-01-15T08:45:37;1.20;99.90
1948;DHT22;974;52.400;9.818;2024-01-15T08:48:03;1.20;99.90
1948;DHT22;974;52.400;9.818;2024-01-15T08:50:29;1.20;99.90
1948;DHT22;974;52.400;9.818;2024-01-15T08:52:54;1.30;99.90
1948;DHT22;974;52.400;9.818;2024-01-15T08:55:20;1.30;99.90
1948;DHT22;974;52.400;9.818;2024-01-15T08:57:48;1.40;99.90
1948;DHT22;974;52.400;9.818;2024-01-15T09:00:14;1.40;99.90
1948;DHT22;974;52.400;9.818;2024-01-15T09:02:39;1.50;99.90
1948;DHT22;974;52.400;9.818;2024-01-15T09:05:05;1.50;99.90
1948;DHT22;974;52.400;9.818;2024-01-15T09:07:30;1.60;99.90
1948;DHT22;974;52.400;9.818;2024-01-15T09:09:56;1.50;99.90
1948;DHT22;974;52.400;9.818;2024-01-15T09:12:21;1.60;99.90
1948;DHT22;974;52.400;9.818;2024-01-15T09:14:47;1.60;99.90
1948;DHT22;974;52.400;9.818;2024-01-15T09:17:13;1.50;99.90
1948;DHT22;974;52.400;9.818;2024-01-15T09:19:38;1.60;99.90
1948;DHT22;974;52.400;9.818;2024-01-15T09:22:05;1.60;99.90
1948;DHT22;974;52.400;9.818;2024-01-15T09:24:30;1.70;99.90
1948;DHT22;974;52.400;9.818;2024-01-15T09:26:56;1.60;99.90
1948;DHT22;974;52.400;9.818;2024-01-15T09:29:21;1.70;99.90
1948;DHT22;974;52.400;9.818;2024-01-15T09:31:49;1.70;99.90
1948;DHT22;974;52.400;9.818;2024-01-15T09:34:15;1.80;99.90
1948;DHT22;974;52.400;9.818;2024-01-15T09:36:41;1.80;99.90
1948;DHT22;974;52.400;9.818;2024-01-15T09:39:08;1.80;99.90
1948;DHT22;974;52.400;9.818;2024-01-15T09:41:35;1.90;99.90
1948;DHT22;974;52.400;9.818;2024-01-15T09:44:02;1.90;99.90
1948;DHT22;974;52.400;9.818;2024-01-15T09:46:28;1.90;99.90
1948;DHT22;974;52.400;9.818;2024-01-15T09:48:53;1.90;99.90
1948;DHT22;974;52.400;9.818;2024-01-15T09:51:19;1.90;99.90
1948;DHT22;974;52.400;9.818;2024-01-15T09:53:46;2.00;99.90
1948;DHT22;974;52.400;9.818;2024-01-15T09:56:12;2.00;99.90
1948;DHT22;974;52.400;9.818;2024-01-15T09:58:38;1.90;99.90
1948;DHT22;974;52.400;9.818;2024-01-15T10:01:04;1.90;99.90
1948;DHT22;974;52.400;9.818;2024-01-15T10:03:30;2.00;99.90
1948;DHT22;974;52.400;9.818;2024-01-15T10:05:58;2.10;99.90
1948;DHT22;974;52.400;9.818;2024-01-15T10:08:25;2.00;99.90
1948;DHT22;974;52.400;9.818;2024-01-15T10:10:51;1.90;99.90
1948;DHT22;974;52.400;9.818;2024-01-15T10:13:17;1.90;99.90
1948;DHT22;974;52.400;9.818;2024-01-15T10:15:45;1.90;99.90
1948;DHT22;974;52.400;9.818;2024-01-15T10:18:12;1.80;99.90
1948;DHT22;974;52.400;9.818;2024-01-15T10:20:38;1.80;99.90
1948;DHT22;974;52.400;9.818;2024-01-15T10:23:05;1.80;99.90
1948;DHT22;974;52.400;9.818;2024-01-15T10:25:30;1.80;99.90
1948;DHT22;974;52.400;9.818;2024-01-15T10:28:00;1.80;99.90
1948;DHT22;974;52.400;9.818;2024-01-15T10:30:26;1.70;99.90
1948;DHT22;974;52.400;9.818;2024-01-15T10:33:02;1.60;99.90
1948;DHT22;974;52.400;9.818;2024-01-15T10:35:34;1.40;99.90
1948;DHT22;974;52.400;9.818;2024-01-15T10:38:01;1.40;99.90
1948;DHT22;974;52.400;9.818;2024-01-15T10:40:27;1.40;99.90
1948;DHT22;974;52.400;9.818;2024-01-15T10:42:53;1.40;99.90
1948;DHT22;974;52.400;9.818;2024-01-15T10:45:18;1.50;99.90
1948;DHT22;974;52.400;9.818;2024-01-15T10:47:44;1.50;99.90
1948;DHT22;974;52.400;9.818;2024-01-15T10:50:10;1.60;99.90
1948;DHT22;974;52.400;9.818;2024-01-15T10:52:37;1.70;99.90
1948;DHT22;974;52.400;9.818;2024-01-15T10:55:03;1.70;99.90
1948;DHT22;974;52.400;9.818;2024-01-15T10:57:29;1.80;99.90
1948;DHT22;974;52.400;9.818;2024-01-15T10:59:55;1.80;99.90
1948;DHT22;974;52.400;9.818;2024-01-15T11:02:21;1.90;99.90
1948;DHT22;974;52.400;9.818;2024-01-15T11:05:02;1.80;99.90
1948;DHT22;974;52.400;9.818;2024-01-15T11:07:30;1.80;99.90
1948;DHT22;974;52.400;9.818;2024-01-15T11:09:55;1.90;99.90
1948;DHT22;974;52.400;9.818;2024-01-15T11:12:23;1.90;99.90
1948;DHT22;974;52.400;9.818;2024-01-15T11:14:49;1.90;99.90
1948;DHT22;974;52.400;9.818;2024-01-15T11:17:16;1.90;99.90
1948;DHT22;974;52.400;9.818;2024-01-15T11:19:47;1.90;99.90
1948;DHT22;974;52.400;9.818;2024-01-15T11:22:47;1.90;99.90
1948;DHT22;974;52.400;9.818;2024-01-15T11:25:14;2.00;99.90
1948;DHT22;974;52.400;9.818;2024-01-15T11:27:47;2.00;99.90
1948;DHT22;974;52.400;9.818;2024-01-15T11:30:13;2.10;99.90
1948;DHT22;974;52.400;9.818;2024-01-15T11:32:40;2.10;99.90
1948;DHT22;974;52.400;9.818;2024-01-15T11:35:10;2.10;99.90
1948;DHT22;974;52.400;9.818;2024-01-15T11:42:46;2.20;99.90
1948;DHT22;974;52.400;9.818;2024-01-15T11:45:13;2.30;99.90
1948;DHT22;974;52.400;9.818;2024-01-15T11:48:03;2.20;99.90
1948;DHT22;974;52.400;9.818;2024-01-15T11:50:33;2.20;99.90
1948;DHT22;974;52.400;9.818;2024-01-15T11:53:03;2.30;99.90
1948;DHT22;974;52.400;9.818;2024-01-15T11:55:34;2.30;99.90
1948;DHT22;974;52.400;9.818;2024-01-15T11:58:01;2.20;99.90
1948;DHT22;974;52.400;9.818;2024-01-15T12:00:28;2.20;99.90
1948;DHT22;974;52.400;9.818;2024-01-15T12:02:54;2.20;99.90
1948;DHT22;974;52.400;9.818;2024-01-15T12:05:20;2.20;99.90
1948;DHT22;974;52.400;9.818;2024-01-15T12:07:49;2.20;99.90
1948;DHT22;974;52.400;9.818;2024-01-15T12:10:20;2.20;99.90
1948;DHT22;974;52.400;9.818;2024-01-15T12:12:58;2.10;99.90
1948;DHT22;974;52.400;9.818;2024-01-15T12:15:26;2.10;99.90
1948;DHT22;974;52.400;9.818;2024-01-15T12:17:54;2.10;99.90
1948;DHT22;974;52.400;9.818;2024-01-15T12:20:19;2.10;99.90
1948;DHT22;974;52.400;9.818;2024-01-15T12:22:45;2.10;99.90
1948;DHT22;974;52.400;9.818;2024-01-15T12:25:11;2.10;99.90
1948;DHT22;974;52.400;9.818;2024-01-15T12:27:37;2.10;99.90
1948;DHT22;974;52.400;9.818;2024-01-15T12:30:03;2.10;99.90
1948;DHT22;974;52.400;9.818;2024-01-15T12:32:29;2.10;99.90
1948;DHT22;974;52.400;9.818;2024-01-15T12:34:54;2.20;99.90
1948;DHT22;974;52.400;9.818;2024-01-15T12:37:20;2.20;99.90
1948;DHT22;974;52.400;9.818;2024-01-15T12:39:47;2.20;99.90
1948;DHT22;974;52.400;9.818;2024-01-15T12:42:16;2.20;99.90
1948;DHT22;974;52.400;9.818;2024-01-15T12:44:42;2.20;99.90
1948;DHT22;974;52.400;9.818;2024-01-15T12:47:08;2.20;99.90
1948;DHT22;974;52.400;9.818;2024-01-15T12:49:36;2.20;99.90
1948;DHT22;974;52.400;9.818;2024-01-15T12:52:02;2.30;99.90
1948;DHT22;974;52.400;9.818;2024-01-15T12:54:28;2.20;99.90
1948;DHT22;974;52.400;9.818;2024-01-15T12:56:54;2.20;99.90
1948;DHT22;974;52.400;9.818;2024-01-15T12:59:19;2.30;99.90
1948;DHT22;974;52.400;9.818;2024-01-15T13:01:46;2.30;99.90
1948;DHT22;974;52.400;9.818;2024-01-15T13:04:12;2.30;99.90
1948;DHT22;974;52.400;9.818;2024-01-15T13:06:45;2.30;99.90
1948;DHT22;974;52.400;9.818;2024-01-15T13:09:11;2.30;99.90
1948;DHT22;974;52.400;9.818;2024-01-15T13:11:37;2.20;99.90
1948;DHT22;974;52.400;9.818;2024-01-15T13:14:02;2.30;99.90
1948;DHT22;974;52.400;9.818;2024-01-15T13:16:27;2.10;99.90
1948;DHT22;974;52.400;9.818;2024-01-15T13:18:54;2.00;99.90
1948;DHT22;974;52.400;9.818;2024-01-15T13:21:20;2.00;99.90
1948;DHT22;974;52.400;9.818;2024-01-15T13:23:46;2.00;99.90
1948;DHT22;974;52.400;9.818;2024-01-15T13:26:11;2.00;99.90
1948;DHT22;974;52.400;9.818;2024-01-15T13:28:37;2.00;99.90
1948;DHT22;974;52.400;9.818;2024-01-15T13:31:03;2.00;99.90
1948;DHT22;974;52.400;9.818;2024-01-15T13:33:30;2.10;99.90
1948;DHT22;974;52.400;9.818;2024-01-15T13:35:55;2.00;99.90
1948;DHT22;974;52.400;9.818;2024-01-15T13:38:21;2.00;99.90
1948;DHT22;974;52.400;9.818;2024-01-15T13:40:46;2.10;99.90
1948;DHT22;974;52.400;9.818;2024-01-15T13:43:18;2.10;99.90
1948;DHT22;974;52.400;9.818;2024-01-15T13:45:44;2.00;99.90
1948;DHT22;974;52.400;9.818;2024-01-15T13:48:09;2.00;99.90
1948;DHT22;974;52.400;9.818;2024-01-15T13:50:36;2.00;99.90
1948;DHT22;974;52.400;9.818;2024-01-15T13:53:02;2.00;99.90
1948;DHT22;974;52.400;9.818;2024-01-15T13:55:29;2.00;99.90
1948;DHT22;974;52.400;9.818;2024-01-15T13:57:55;1.90;99.90
1948;DHT22;974;52.400;9.818;2024-01-15T14:00:20;1.90;99.90
1948;DHT22;974;52.400;9.818;2024-01-15T14:02:46;2.00;99.90
1948;DHT22;974;52.400;9.818;2024-01-15T14:05:12;1.80;99.90
1948;DHT22;974;52.400;9.818;2024-01-15T14:07:38;1.70;99.90
1948;DHT22;974;52.400;9.818;2024-01-15T14:10:05;1.70;99.90
1948;DHT22;974;52.400;9.818;2024-01-15T14:12:31;1.50;99.90
1948;DHT22;974;52.400;9.818;2024-01-15T14:14:57;1.30;99.90
1948;DHT22;974;52.400;9.818;2024-01-15T14:17:22;1.30;99.90
1948;DHT22;974;52.400;9.818;2024-01-15T14:19:48;1.20;99.90
1948;DHT22;974;52.400;9.818;2024-01-15T14:22:13;1.20;99.90
1948;DHT22;974;52.400;9.818;2024-01-15T14:24:38;1.20;99.90
1948;DHT22;974;52.400;9.818;2024-01-15T14:27:04;1.30;99.90
1948;DHT22;974;52.400;9.818;2024-01-15T14:29:30;1.30;99.90
1948;DHT22;974;52.400;9.818;2024-01-15T14:31:56;1.30;99.90
1948;DHT22;974;52.400;9.818;2024-01-15T14:34:21;1.30;99.90
1948;DHT22;974;52.400;9.818;2024-01-15T14:36:50;1.30;99.90
1948;DHT22;974;52.400;9.818;2024-01-15T14:39:15;1.40;99.90
1948;DHT22;974;52.400;9.818;2024-01-15T14:41:41;1.40;99.90
1948;DHT22;974;52.400;9.818;2024-01-15T14:44:07;1.30;99.90
1948;DHT22;974;52.400;9.818;2024-01-15T14:46:33;1.30;99.90
1948;DHT22;974;52.400;9.818;2024-01-15T14:48:58;1.40;99.90
1948;DHT22;974;52.400;9.818;2024-01-15T14:51:24;1.30;99.90
1948;DHT22;974;52.400;9.818;2024-01-15T14:53:49;1.30;99.90
1948;DHT22;974;52.400;9.818;2024-01-15T14:56:15;1.20;99.90
1948;DHT22;974;52.400;9.818;2024-01-15T14:58:40;1.20;99.90
1948;DHT22;974;52.400;9.818;2024-01-15T15:01:06;1.20;99.90
1948;DHT22;974;52.400;9.818;2024-01-15T15:03:31;1.10;99.90
1948;DHT22;974;52.400;9.818;2024-01-15T15:05:58;1.20;99.90
1948;DHT22;974;52.400;9.818;2024-01-15T15:08:23;1.20;99.90
1948;DHT22;974;52.400;9.818;2024-01-15T15:10:48;1.20;99.90
1948;DHT22;974;52.400;9.818;2024-01-15T15:13:14;1.20;99.90
1948;DHT22;974;52.400;9.818;2024-01-15T15:15:39;1.20;99.90
1948;DHT22;974;52.400;9.818;2024-01-15T15:18:05;1.20;99.90
1948;DHT22;974;52.400;9.818;2024-01-15T15:20:30;1.20;99.90
1948;DHT22;974;52.400;9.818;2024-01-15T15:22:56;1.10;99.90
1948;DHT22;974;52.400;9.818;2024-01-15T15:25:22;1.10;99.90
1948;DHT22;974;52.400;9.818;2024-01-15T15:27:48;1.20;99.90
1948;DHT22;974;52.400;9.818;2024-01-15T15:30:13;1.10;99.90
1948;DHT22;974;52.400;9.818;2024-01-15T15:32:39;1.20;99.90
1948;DHT22;974;52.400;9.818;2024-01-15T15:35:05;1.20;99.90
1948;DHT22;974;52.400;9.818;2024-01-15T15:37:31;1.10;99.90
1948;DHT22;974;52.400;9.818;2024-01-15T15:39:57;1.10;99.90
1948;DHT22;974;52.400;9.818;2024-01-15T15:42:23;1.20;99.90
1948;DHT22;974;52.400;9.818;2024-01-15T15:44:49;1.20;99.90
1948;DHT22;974;52.400;9.818;2024-01-15T15:47:16;1.10;99.90
1948;DHT22;974;52.400;9.818;2024-01-15T15:49:41;1.20;99.90
1948;DHT22;974;52.400;9.818;2024-01-15T15:52:07;1.10;99.90
1948;DHT22;974;52.400;9.818;2024-01-15T15:54:33;1.20;99.90
1948;DHT22;974;52.400;9.818;2024-01-15T15:56:58;1.20;99.90
1948;DHT22;974;52.400;9.818;2024-01-15T15:59:24;1.20;99.90
1948;DHT22;974;52.400;9.818;2024-01-15T16:01:49;1.10;99.90
1948;DHT22;974;52.400;9.818;2024-01-15T16:04:15;1.10;99.90
1948;DHT22;974;52.400;9.818;2024-01-15T16:06:43;1.00;99.90
1948;DHT22;974;52.400;9.818;2024-01-15T16:09:12;1.00;99.90
1948;DHT22;974;52.400;9.818;2024-01-15T16:11:37;1.10;99.90
1948;DHT22;974;52.400;9.818;2024-01-15T16:14:04;1.20;99.90
1948;DHT22;974;52.400;9.818;2024-01-15T16:16:30;1.10;99.90
1948;DHT22;974;52.400;9.818;2024-01-15T16:18:56;1.10;99.90
1948;DHT22;974;52.400;9.818;2024-01-15T16:21:21;1.10;99.90
1948;DHT22;974;52.400;9.818;2024-01-15T16:23:47;1.00;99.90
1948;DHT22;974;52.400;9.818;2024-01-15T16:26:13;1.00;99.90
1948;DHT22;974;52.400;9.818;2024-01-15T16:28:38;1.10;99.90
1948;DHT22;974;52.400;9.818;2024-01-15T16:31:04;1.10;99.90